sensor_id;sensor_type;location;lat;lon;timestamp;P1;durP1;ratioP1;P2;durP2;ratioP2
2464;SDS011;1244;54.326;10.074;2024-02-26T00:01:38;0.40;;;0.40;;
2464;SDS011;1244;54.326;10.074;2024-02-26T00:04:03;0.50;;;0.50;;
2464;SDS011;1244;54.326;10.074;2024-02-26T00:06:29;0.40;;;0.40;;
2464;SDS011;1244;54.326;10.074;2024-02-26T00:08:55;0.40;;;0.40;;
2464;SDS011;1244;54.326;10.074;2024-02-26T00:11:21;0.50;;;0.50;;
2464;SDS011;1244;54.326;10.074;2024-02-26T00:13:46;0.40;;;0.40;;
2464;SDS011;1244;54.326;10.074;2024-02-26T00:16:12;0.50;;;0.50;;
2464;SDS011;1244;54.326;10.074;2024-02-26T00:18:37;0.50;;;0.50;;
2464;SDS011;1244;54.326;10.074;2024-02-26T00:21:03;0.40;;;0.40;;
2464;SDS011;1244;54.326;10.074;2024-02-26T00:23:29;0.30;;;0.30;;
2464;SDS011;1244;54.326;10.074;2024-02-26T00:25:54;0.40;;;0.40;;
2464;SDS011;1244;54.326;10.074;2024-02-26T00:28:20;0.30;;;0.30;;
2464;SDS011;1244;54.326;10.074;2024-02-26T00:30:46;0.40;;;0.40;;
2464;SDS011;1244;54.326;10.074;2024-02-26T00:33:11;0.40;;;0.40;;
2464;SDS011;1244;54.326;10.074;2024-02-26T00:35:37;0.40;;;0.40;;
2464;SDS011;1244;54.326;10.074;2024-02-26T00:38:03;0.40;;;0.40;;
2464;SDS011;1244;54.326;10.074;2024-02-26T00:40:29;0.40;;;0.40;;
2464;SDS011;1244;54.326;10.074;2024-02-26T00:42:54;0.40;;;0.40;;
2464;SDS011;1244;54.326;10.074;2024-02-26T00:45:20;0.40;;;0.40;;
2464;SDS011;1244;54.326;10.074;2024-02-26T00:47:45;0.40;;;0.40;;
2464;SDS011;1244;54.326;10.074;2024-02-26T00:50:12;0.40;;;0.40;;
2464;SDS011;1244;54.326;10.074;2024-02-26T00:52:38;0.40;;;0.40;;
2464;SDS011;1244;54.326;10.074;2024-02-26T00:55:04;0.50;;;0.50;;
2464;SDS011;1244;54.326;10.074;2024-02-26T00:57:30;0.50;;;0.50;;
2464;SDS011;1244;54.326;10.074;2024-02-26T00:59:55;0.50;;;0.50;;
2464;SDS011;1244;54.326;10.074;2024-02-26T01:02:22;0.40;;;0.40;;
2464;SDS011;1244;54.326;10.074;2024-02-26T01:04:47;0.50;;;0.50;;
2464;SDS011;1244;54.326;10.074;2024-02-26T01:07:13;0.50;;;0.50;;
2464;SDS011;1244;54.326;10.074;2024-02-26T01:09:38;0.50;;;0.50;;
2464;SDS011;1244;54.326;10.074;2024-02-26T01:12:04;0.50;;;0.50;;
2464;SDS011;1244;54.326;10.074;2024-02-26T01:14:29;0.50;;;0.50;;
2464;SDS011;1244;54.326;10.074;2024-02-26T01:16:55;0.50;;;0.50;;
2464;SDS011;1244;54.326;10.074;2024-02-26T01:19:20;0.50;;;0.50;;
2464;SDS011;1244;54.326;10.074;2024-02-26T01:21:46;0.50;;;0.50;;
2464;SDS011;1244;54.326;10.074;2024-02-26T01:24:11;0.50;;;0.50;;
2464;SDS011;1244;54.326;10.074;2024-02-26T01:26:37;0.50;;;0.50;;
2464;SDS011;1244;54.326;10.074;2024-02-26T01:29:03;0.50;;;0.50;;
2464;SDS011;1244;54.326;10.074;2024-02-26T01:31:28;0.43;;;0.43;;
2464;SDS011;1244;54.326;10.074;2024-02-26T01:33:54;0.50;;;0.50;;
2464;SDS011;1244;54.326;10.074;2024-02-26T01:36:19;0.40;;;0.40;;
2464;SDS011;1244;54.326;10.074;2024-02-26T01:38:46;0.40;;;0.40;;
2464;SDS011;1244;54.326;10.074;2024-02-26T01:41:13;0.50;;;0.50;;
2464;SDS011;1244;54.326;10.074;2024-02-26T01:43:39;0.40;;;0.40;;
2464;SDS011;1244;54.326;10.074;2024-02-26T01:46:04;0.50;;;0.50;;
2464;SDS011;1244;54.326;10.074;2024-02-26T01:48:30;0.50;;;0.50;;
2464;SDS011;1244;54.326;10.074;2024-02-26T01:50:56;0.50;;;0.50;;
2464;SDS011;1244;54.326;10.074;2024-02-26T01:53:22;0.40;;;0.40;;
2464;SDS011;1244;54.326;10.074;2024-02-26T01:55:48;0.50;;;0.50;;
2464;SDS011;1244;54.326;10.074;2024-02-26T01:58:14;0.40;;;0.40;;
2464;SDS011;1244;54.326;10.074;2024-02-26T02:00:40;0.50;;;0.50;;
2464;SDS011;1244;54.326;10.074;2024-02-26T02:03:05;0.50;;;0.50;;
2464;SDS011;1244;54.326;10.074;2024-02-26T02:05:31;0.40;;;0.40;;
2464;SDS011;1244;54.326;10.074;2024-02-26T02:07:58;0.40;;;0.40;;
2464;SDS011;1244;54.326;10.074;2024-02-26T02:10:24;0.50;;;0.50;;
2464;SDS011;1244;54.326;10.074;2024-02-26T02:12:51;0.50;;;0.50;;
2464;SDS011;1244;54.326;10.074;2024-02-26T02:15:17;0.50;;;0.50;;
2464;SDS011;1244;54.326;10.074;2024-02-26T02:17:42;0.50;;;0.50;;
2464;SDS011;1244;54.326;10.074;2024-02-26T02:20:09;0.40;;;0.40;;
2464;SDS011;1244;54.326;10.074;2024-02-26T02:22:40;0.43;;;0.43;;
2464;SDS011;1244;54.326;10.074;2024-02-26T02:25:05;0.40;;;0.40;;
2464;SDS011;1244;54.326;10.074;2024-02-26T02:27:31;0.47;;;0.47;;
2464;SDS011;1244;54.326;10.074;2024-02-26T02:29:57;0.50;;;0.50;;
2464;SDS011;1244;54.326;10.074;2024-02-26T02:32:22;0.50;;;0.50;;
2464;SDS011;1244;54.326;10.074;2024-02-26T02:34:50;0.40;;;0.40;;
2464;SDS011;1244;54.326;10.074;2024-02-26T02:37:16;0.50;;;0.50;;
2464;SDS011;1244;54.326;10.074;2024-02-26T02:39:41;0.50;;;0.50;;
2464;SDS011;1244;54.326;10.074;2024-02-26T02:42:08;0.50;;;0.50;;
2464;SDS011;1244;54.326;10.074;2024-02-26T02:44:33;0.30;;;0.30;;
2464;SDS011;1244;54.326;10.074;2024-02-26T02:46:59;0.50;;;0.50;;
2464;SDS011;1244;54.326;10.074;2024-02-26T02:49:24;0.50;;;0.50;;
2464;SDS011;1244;54.326;10.074;2024-02-26T02:51:50;0.50;;;0.50;;
2464;SDS011;1244;54.326;10.074;2024-02-26T02:54:15;0.50;;;0.50;;
2464;SDS011;1244;54.326;10.074;2024-02-26T02:56:41;0.50;;;0.50;;
2464;SDS011;1244;54.326;10.074;2024-02-26T02:59:06;0.50;;;0.50;;
2464;SDS011;1244;54.326;10.074;2024-02-26T03:01:32;0.50;;;0.50;;
2464;SDS011;1244;54.326;10.074;2024-02-26T03:03:57;0.50;;;0.50;;
2464;SDS011;1244;54.326;10.074;2024-02-26T03:06:23;0.50;;;0.50;;
2464;SDS011;1244;54.326;10.074;2024-02-26T03:08:51;0.40;;;0.40;;
2464;SDS011;1244;54.326;10.074;2024-02-26T03:11:17;0.60;;;0.60;;
2464;SDS011;1244;54.326;10.074;2024-02-26T03:13:42;0.50;;;0.50;;
2464;SDS011;1244;54.326;10.074;2024-02-26T03:16:08;0.50;;;0.50;;
2464;SDS011;1244;54.326;10.074;2024-02-26T03:18:34;0.40;;;0.40;;
2464;SDS011;1244;54.326;10.074;2024-02-26T03:20:59;0.50;;;0.50;;
2464;SDS011;1244;54.326;10.074;2024-02-26T03:23:25;0.50;;;0.50;;
2464;SDS011;1244;54.326;10.074;2024-02-26T03:25:50;0.40;;;0.40;;
2464;SDS011;1244;54.326;10.074;2024-02-26T03:28:16;0.50;;;0.50;;
2464;SDS011;1244;54.326;10.074;2024-02-26T03:30:41;0.50;;;0.50;;
2464;SDS011;1244;54.326;10.074;2024-02-26T03:33:07;0.50;;;0.50;;
2464;SDS011;1244;54.326;10.074;2024-02-26T03:35:32;0.40;;;0.40;;
2464;SDS011;1244;54.326;10.074;2024-02-26T03:37:58;0.50;;;0.50;;
2464;SDS011;1244;54.326;10.074;2024-02-26T03:40:23;0.40;;;0.40;;
2464;SDS011;1244;54.326;10.074;2024-02-26T03:42:49;0.50;;;0.50;;
2464;SDS011;1244;54.326;10.074;2024-02-26T03:45:15;0.47;;;0.47;;
2464;SDS011;1244;54.326;10.074;2024-02-26T03:47:41;0.40;;;0.40;;
2464;SDS011;1244;54.326;10.074;2024-02-26T03:50:06;0.50;;;0.50;;
2464;SDS011;1244;54.326;10.074;2024-02-26T03:52:32;0.50;;;0.50;;
2464;SDS011;1244;54.326;10.074;2024-02-26T03:54:59;0.50;;;0.50;;
2464;SDS011;1244;54.326;10.074;2024-02-26T03:57:24;0.40;;;0.40;;
2464;SDS011;1244;54.326;10.074;2024-02-26T03:59:50;0.40;;;0.40;;
2464;SDS011;1244;54.326;10.074;2024-02-26T04:02:16;0.40;;;0.40;;
2464;SDS011;1244;54.326;10.074;2024-02-26T04:04:41;0.50;;;0.50;;
2464;SDS011;1244;54.326;10.074;2024-02-26T04:07:07;0.50;;;0.50;;
2464;SDS011;1244;54.326;10.074;2024-02-26T04:09:32;0.50;;;0.50;;
2464;SDS011;1244;54.326;10.074;2024-02-26T04:11:58;0.50;;;0.50;;
2464;SDS011;1244;54.326;10.074;2024-02-26T04:14:24;0.50;;;0.50;;
2464;SDS011;1244;54.326;10.074;2024-02-26T04:16:49;0.50;;;0.50;;
2464;SDS011;1244;54.326;10.074;2024-02-26T04:19:17;0.50;;;0.50;;
2464;SDS011;1244;54.326;10.074;2024-02-26T04:21:43;0.50;;;0.50;;
2464;SDS011;1244;54.326;10.074;2024-02-26T04:24:08;0.50;;;0.50;;
2464;SDS011;1244;54.326;10.074;2024-02-26T04:26:34;0.50;;;0.50;;
2464;SDS011;1244;54.326;10.074;2024-02-26T04:29:00;0.50;;;0.50;;
2464;SDS011;1244;54.326;10.074;2024-02-26T04:31:25;0.50;;;0.50;;
2464;SDS011;1244;54.326;10.074;2024-02-26T04:33:55;0.50;;;0.50;;
2464;SDS011;1244;54.326;10.074;2024-02-26T04:36:20;0.60;;;0.60;;
2464;SDS011;1244;54.326;10.074;2024-02-26T04:38:47;0.40;;;0.40;;
2464;SDS011;1244;54.326;10.074;2024-02-26T04:41:12;0.50;;;0.50;;
2464;SDS011;1244;54.326;10.074;2024-02-26T04:43:38;0.50;;;0.50;;
2464;SDS011;1244;54.326;10.074;2024-02-26T04:46:09;0.50;;;0.50;;
2464;SDS011;1244;54.326;10.074;2024-02-26T04:48:37;0.50;;;0.50;;
2464;SDS011;1244;54.326;10.074;2024-02-26T04:51:03;0.50;;;0.50;;
2464;SDS011;1244;54.326;10.074;2024-02-26T04:53:29;0.50;;;0.50;;
2464;SDS011;1244;54.326;10.074;2024-02-26T04:55:54;0.50;;;0.50;;
2464;SDS011;1244;54.326;10.074;2024-02-26T04:58:20;0.40;;;0.40;;
2464;SDS011;1244;54.326;10.074;2024-02-26T05:00:45;0.50;;;0.50;;
2464;SDS011;1244;54.326;10.074;2024-02-26T05:03:11;0.50;;;0.50;;
2464;SDS011;1244;54.326;10.074;2024-02-26T05:05:40;0.50;;;0.50;;
2464;SDS011;1244;54.326;10.074;2024-02-26T05:08:07;0.50;;;0.50;;
2464;SDS011;1244;54.326;10.074;2024-02-26T05:10:33;0.50;;;0.50;;
2464;SDS011;1244;54.326;10.074;2024-02-26T05:12:59;0.50;;;0.50;;
2464;SDS011;1244;54.326;10.074;2024-02-26T05:15:25;0.60;;;0.60;;
2464;SDS011;1244;54.326;10.074;2024-02-26T05:17:50;0.40;;;0.40;;
2464;SDS011;1244;54.326;10.074;2024-02-26T05:20:16;0.50;;;0.50;;
2464;SDS011;1244;54.326;10.074;2024-02-26T05:22:41;0.50;;;0.50;;
2464;SDS011;1244;54.326;10.074;2024-02-26T05:25:07;0.50;;;0.50;;
2464;SDS011;1244;54.326;10.074;2024-02-26T05:27:33;0.50;;;0.50;;
2464;SDS011;1244;54.326;10.074;2024-02-26T05:29:58;0.50;;;0.50;;
2464;SDS011;1244;54.326;10.074;2024-02-26T05:32:24;0.50;;;0.50;;
2464;SDS011;1244;54.326;10.074;2024-02-26T05:34:49;0.50;;;0.50;;
2464;SDS011;1244;54.326;10.074;2024-02-26T05:37:15;0.50;;;0.50;;
2464;SDS011;1244;54.326;10.074;2024-02-26T05:39:40;0.50;;;0.50;;
2464;SDS011;1244;54.326;10.074;2024-02-26T05:42:06;0.60;;;0.60;;
2464;SDS011;1244;54.326;10.074;2024-02-26T05:44:33;0.47;;;0.47;;
2464;SDS011;1244;54.326;10.074;2024-02-26T05:46:59;0.53;;;0.53;;
2464;SDS011;1244;54.326;10.074;2024-02-26T05:49:24;0.50;;;0.50;;
2464;SDS011;1244;54.326;10.074;2024-02-26T05:51:50;0.50;;;0.50;;
2464;SDS011;1244;54.326;10.074;2024-02-26T05:54:15;0.40;;;0.40;;
2464;SDS011;1244;54.326;10.074;2024-02-26T05:56:41;0.50;;;0.50;;
2464;SDS011;1244;54.326;10.074;2024-02-26T05:59:07;0.50;;;0.50;;
2464;SDS011;1244;54.326;10.074;2024-02-26T06:01:33;0.50;;;0.50;;
2464;SDS011;1244;54.326;10.074;2024-02-26T06:03:58;0.50;;;0.50;;
2464;SDS011;1244;54.326;10.074;2024-02-26T06:06:24;0.50;;;0.50;;
2464;SDS011;1244;54.326;10.074;2024-02-26T06:08:50;0.50;;;0.50;;
2464;SDS011;1244;54.326;10.074;2024-02-26T06:11:15;0.57;;;0.57;;
2464;SDS011;1244;54.326;10.074;2024-02-26T06:13:41;0.50;;;0.50;;
2464;SDS011;1244;54.326;10.074;2024-02-26T06:16:07;0.50;;;0.50;;
2464;SDS011;1244;54.326;10.074;2024-02-26T06:18:33;0.50;;;0.50;;
2464;SDS011;1244;54.326;10.074;2024-02-26T06:20:59;0.50;;;0.50;;
2464;SDS011;1244;54.326;10.074;2024-02-26T06:23:24;0.50;;;0.50;;
2464;SDS011;1244;54.326;10.074;2024-02-26T06:25:51;0.50;;;0.50;;
2464;SDS011;1244;54.326;10.074;2024-02-26T06:28:17;0.60;;;0.60;;
2464;SDS011;1244;54.326;10.074;2024-02-26T06:30:42;0.43;;;0.43;;
2464;SDS011;1244;54.326;10.074;2024-02-26T06:33:08;0.50;;;0.50;;
2464;SDS011;1244;54.326;10.074;2024-02-26T06:35:34;0.50;;;0.50;;
2464;SDS011;1244;54.326;10.074;2024-02-26T06:37:59;0.40;;;0.40;;
2464;SDS011;1244;54.326;10.074;2024-02-26T06:40:24;0.60;;;0.60;;
2464;SDS011;1244;54.326;10.074;2024-02-26T06:42:50;0.50;;;0.50;;
2464;SDS011;1244;54.326;10.074;2024-02-26T06:45:16;0.50;;;0.50;;
2464;SDS011;1244;54.326;10.074;2024-02-26T06:47:44;0.50;;;0.50;;
2464;SDS011;1244;54.326;10.074;2024-02-26T06:50:11;0.47;;;0.47;;
2464;SDS011;1244;54.326;10.074;2024-02-26T06:52:38;0.50;;;0.50;;
2464;SDS011;1244;54.326;10.074;2024-02-26T06:55:04;0.50;;;0.50;;
2464;SDS011;1244;54.326;10.074;2024-02-26T06:57:30;0.50;;;0.50;;
2464;SDS011;1244;54.326;10.074;2024-02-26T06:59:55;0.50;;;0.50;;
2464;SDS011;1244;54.326;10.074;2024-02-26T07:02:21;0.50;;;0.50;;
2464;SDS011;1244;54.326;10.074;2024-02-26T07:04:46;0.50;;;0.50;;
2464;SDS011;1244;54.326;10.074;2024-02-26T07:07:12;0.50;;;0.50;;
2464;SDS011;1244;54.326;10.074;2024-02-26T07:09:37;0.50;;;0.50;;
2464;SDS011;1244;54.326;10.074;2024-02-26T07:12:03;0.40;;;0.40;;
2464;SDS011;1244;54.326;10.074;2024-02-26T07:14:28;0.50;;;0.50;;
2464;SDS011;1244;54.326;10.074;2024-02-26T07:16:54;0.50;;;0.50;;
2464;SDS011;1244;54.326;10.074;2024-02-26T07:19:19;0.50;;;0.50;;
2464;SDS011;1244;54.326;10.074;2024-02-26T07:21:45;0.50;;;0.50;;
2464;SDS011;1244;54.326;10.074;2024-02-26T07:24:10;0.50;;;0.50;;
2464;SDS011;1244;54.326;10.074;2024-02-26T07:26:36;0.50;;;0.50;;
2464;SDS011;1244;54.326;10.074;2024-02-26T07:29:01;0.50;;;0.50;;
2464;SDS011;1244;54.326;10.074;2024-02-26T07:31:27;0.50;;;0.50;;
2464;SDS011;1244;54.326;10.074;2024-02-26T07:33:52;0.40;;;0.40;;
2464;SDS011;1244;54.326;10.074;2024-02-26T07:36:18;0.50;;;0.50;;
2464;SDS011;1244;54.326;10.074;2024-02-26T07:38:43;0.60;;;0.60;;
2464;SDS011;1244;54.326;10.074;2024-02-26T07:41:09;0.50;;;0.50;;
2464;SDS011;1244;54.326;10.074;2024-02-26T07:43:35;0.40;;;0.40;;
2464;SDS011;1244;54.326;10.074;2024-02-26T07:46:00;0.50;;;0.50;;
2464;SDS011;1244;54.326;10.074;2024-02-26T07:48:26;0.40;;;0.40;;
2464;SDS011;1244;54.326;10.074;2024-02-26T07:50:51;0.50;;;0.50;;
2464;SDS011;1244;54.326;10.074;2024-02-26T07:53:17;0.40;;;0.40;;
2464;SDS011;1244;54.326;10.074;2024-02-26T07:55:42;0.50;;;0.50;;
2464;SDS011;1244;54.326;10.074;2024-02-26T07:58:08;0.50;;;0.50;;
2464;SDS011;1244;54.326;10.074;2024-02-26T08:00:33;0.40;;;0.40;;
2464;SDS011;1244;54.326;10.074;2024-02-26T08:02:59;0.50;;;0.50;;
2464;SDS011;1244;54.326;10.074;2024-02-26T08:05:25;0.40;;;0.40;;
2464;SDS011;1244;54.326;10.074;2024-02-26T08:07:51;0.40;;;0.40;;
2464;SDS011;1244;54.326;10.074;2024-02-26T08:10:16;0.40;;;0.40;;
2464;SDS011;1244;54.326;10.074;2024-02-26T08:12:42;0.50;;;0.50;;
2464;SDS011;1244;54.326;10.074;2024-02-26T08:15:07;0.50;;;0.50;;
2464;SDS011;1244;54.326;10.074;2024-02-26T08:17:33;0.40;;;0.40;;
2464;SDS011;1244;54.326;10.074;2024-02-26T08:19:59;0.50;;;0.50;;
2464;SDS011;1244;54.326;10.074;2024-02-26T08:22:25;0.43;;;0.43;;
2464;SDS011;1244;54.326;10.074;2024-02-26T08:24:51;0.50;;;0.50;;
2464;SDS011;1244;54.326;10.074;2024-02-26T08:29:42;0.30;;;0.30;;
2464;SDS011;1244;54.326;10.074;2024-02-26T08:32:08;0.50;;;0.50;;
2464;SDS011;1244;54.326;10.074;2024-02-26T08:34:33;0.50;;;0.50;;
2464;SDS011;1244;54.326;10.074;2024-02-26T08:36:59;0.40;;;0.40;;
2464;SDS011;1244;54.326;10.074;2024-02-26T08:39:24;0.37;;;0.37;;
2464;SDS011;1244;54.326;10.074;2024-02-26T08:41:51;0.40;;;0.40;;
2464;SDS011;1244;54.326;10.074;2024-02-26T08:44:16;0.40;;;0.40;;
2464;SDS011;1244;54.326;10.074;2024-02-26T08:46:42;0.40;;;0.40;;
2464;SDS011;1244;54.326;10.074;2024-02-26T08:49:07;0.40;;;0.40;;
2464;SDS011;1244;54.326;10.074;2024-02-26T08:51:33;0.40;;;0.40;;
2464;SDS011;1244;54.326;10.074;2024-02-26T08:53:58;0.40;;;0.40;;
2464;SDS011;1244;54.326;10.074;2024-02-26T08:56:24;0.40;;;0.40;;
2464;SDS011;1244;54.326;10.074;2024-02-26T08:58:49;0.40;;;0.40;;
2464;SDS011;1244;54.326;10.074;2024-02-26T09:01:18;0.50;;;0.50;;
2464;SDS011;1244;54.326;10.074;2024-02-26T09:03:44;0.40;;;0.40;;
2464;SDS011;1244;54.326;10.074;2024-02-26T09:06:09;0.40;;;0.40;;
2464;SDS011;1244;54.326;10.074;2024-02-26T09:08:36;0.50;;;0.50;;
2464;SDS011;1244;54.326;10.074;2024-02-26T09:11:02;0.40;;;0.40;;
2464;SDS011;1244;54.326;10.074;2024-02-26T09:13:28;0.40;;;0.40;;
2464;SDS011;1244;54.326;10.074;2024-02-26T09:15:54;0.40;;;0.40;;
2464;SDS011;1244;54.326;10.074;2024-02-26T09:18:19;0.40;;;0.40;;
2464;SDS011;1244;54.326;10.074;2024-02-26T09:20:45;0.40;;;0.40;;
2464;SDS011;1244;54.326;10.074;2024-02-26T09:23:10;0.30;;;0.30;;
2464;SDS011;1244;54.326;10.074;2024-02-26T09:25:36;0.40;;;0.40;;
2464;SDS011;1244;54.326;10.074;2024-02-26T09:28:01;0.40;;;0.40;;
2464;SDS011;1244;54.326;10.074;2024-02-26T09:30:28;0.30;;;0.30;;
2464;SDS011;1244;54.326;10.074;2024-02-26T09:32:53;0.40;;;0.40;;
2464;SDS011;1244;54.326;10.074;2024-02-26T09:35:19;0.40;;;0.40;;
2464;SDS011;1244;54.326;10.074;2024-02-26T09:37:46;0.33;;;0.33;;
2464;SDS011;1244;54.326;10.074;2024-02-26T09:40:11;0.40;;;0.40;;
2464;SDS011;1244;54.326;10.074;2024-02-26T09:42:37;0.30;;;0.30;;
2464;SDS011;1244;54.326;10.074;2024-02-26T09:45:12;0.37;;;0.37;;
2464;SDS011;1244;54.326;10.074;2024-02-26T09:47:43;0.40;;;0.40;;
2464;SDS011;1244;54.326;10.074;2024-02-26T09:50:10;0.30;;;0.30;;
2464;SDS011;1244;54.326;10.074;2024-02-26T09:52:38;0.30;;;0.30;;
2464;SDS011;1244;54.326;10.074;2024-02-26T09:55:07;0.40;;;0.40;;
2464;SDS011;1244;54.326;10.074;2024-02-26T09:57:34;0.40;;;0.40;;
2464;SDS011;1244;54.326;10.074;2024-02-26T10:00:02;0.30;;;0.30;;
2464;SDS011;1244;54.326;10.074;2024-02-26T10:02:33;0.40;;;0.40;;
2464;SDS011;1244;54.326;10.074;2024-02-26T10:05:02;0.50;;;0.50;;
2464;SDS011;1244;54.326;10.074;2024-02-26T10:07:32;0.30;;;0.30;;
2464;SDS011;1244;54.326;10.074;2024-02-26T10:09:59;0.30;;;0.30;;
2464;SDS011;1244;54.326;10.074;2024-02-26T10:12:25;0.40;;;0.40;;
2464;SDS011;1244;54.326;10.074;2024-02-26T10:14:53;0.30;;;0.30;;
2464;SDS011;1244;54.326;10.074;2024-02-26T10:17:18;0.30;;;0.30;;
2464;SDS011;1244;54.326;10.074;2024-02-26T10:19:45;0.30;;;0.30;;
2464;SDS011;1244;54.326;10.074;2024-02-26T10:22:10;0.30;;;0.30;;
2464;SDS011;1244;54.326;10.074;2024-02-26T10:24:36;0.30;;;0.30;;
2464;SDS011;1244;54.326;10.074;2024-02-26T10:27:02;0.40;;;0.40;;
2464;SDS011;1244;54.326;10.074;2024-02-26T10:29:27;0.30;;;0.30;;
2464;SDS011;1244;54.326;10.074;2024-02-26T10:31:53;0.20;;;0.20;;
2464;SDS011;1244;54.326;10.074;2024-02-26T10:34:19;0.30;;;0.30;;
2464;SDS011;1244;54.326;10.074;2024-02-26T10:36:46;0.30;;;0.30;;
2464;SDS011;1244;54.326;10.074;2024-02-26T10:39:12;0.30;;;0.30;;
2464;SDS011;1244;54.326;10.074;2024-02-26T10:41:38;0.30;;;0.30;;
2464;SDS011;1244;54.326;10.074;2024-02-26T10:44:06;0.30;;;0.30;;
2464;SDS011;1244;54.326;10.074;2024-02-26T10:46:35;0.30;;;0.30;;
2464;SDS011;1244;54.326;10.074;2024-02-26T10:49:02;0.30;;;0.30;;
2464;SDS011;1244;54.326;10.074;2024-02-26T10:51:28;0.30;;;0.30;;
2464;SDS011;1244;54.326;10.074;2024-02-26T10:53:55;0.30;;;0.30;;
2464;SDS011;1244;54.326;10.074;2024-02-26T10:56:33;0.30;;;0.30;;
2464;SDS011;1244;54.326;10.074;2024-02-26T10:58:59;0.30;;;0.30;;
2464;SDS011;1244;54.326;10.074;2024-02-26T11:01:26;0.40;;;0.40;;
2464;SDS011;1244;54.326;10.074;2024-02-26T11:03:54;0.30;;;0.30;;
2464;SDS011;1244;54.326;10.074;2024-02-26T11:06:21;0.37;;;0.37;;
2464;SDS011;1244;54.326;10.074;2024-02-26T11:08:50;0.30;;;0.30;;
2464;SDS011;1244;54.326;10.074;2024-02-26T11:11:20;0.40;;;0.40;;
2464;SDS011;1244;54.326;10.074;2024-02-26T11:13:47;0.20;;;0.20;;
2464;SDS011;1244;54.326;10.074;2024-02-26T11:16:16;0.33;;;0.33;;
2464;SDS011;1244;54.326;10.074;2024-02-26T11:18:43;0.30;;;0.30;;
2464;SDS011;1244;54.326;10.074;2024-02-26T11:21:17;0.30;;;0.30;;
2464;SDS011;1244;54.326;10.074;2024-02-26T11:23:45;0.23;;;0.23;;
2464;SDS011;1244;54.326;10.074;2024-02-26T11:26:11;0.40;;;0.40;;
2464;SDS011;1244;54.326;10.074;2024-02-26T11:28:40;0.30;;;0.30;;
2464;SDS011;1244;54.326;10.074;2024-02-26T11:31:06;0.30;;;0.30;;
2464;SDS011;1244;54.326;10.074;2024-02-26T11:33:33;0.30;;;0.30;;
2464;SDS011;1244;54.326;10.074;2024-02-26T11:36:01;0.30;;;0.30;;
2464;SDS011;1244;54.326;10.074;2024-02-26T11:38:32;0.30;;;0.30;;
2464;SDS011;1244;54.326;10.074;2024-02-26T11:40:58;0.30;;;0.30;;
2464;SDS011;1244;54.326;10.074;2024-02-26T11:46:28;0.40;;;0.40;;
2464;SDS011;1244;54.326;10.074;2024-02-26T11:49:30;0.30;;;0.30;;
2464;SDS011;1244;54.326;10.074;2024-02-26T11:51:57;0.30;;;0.30;;
2464;SDS011;1244;54.326;10.074;2024-02-26T11:57:24;0.20;;;0.20;;
2464;SDS011;1244;54.326;10.074;2024-02-26T12:02:44;0.20;;;0.20;;
2464;SDS011;1244;54.326;10.074;2024-02-26T12:05:17;0.10;;;0.10;;
2464;SDS011;1244;54.326;10.074;2024-02-26T12:07:45;0.10;;;0.10;;
2464;SDS011;1244;54.326;10.074;2024-02-26T12:10:16;0.10;;;0.10;;
2464;SDS011;1244;54.326;10.074;2024-02-26T12:12:52;0.10;;;0.10;;
2464;SDS011;1244;54.326;10.074;2024-02-26T12:15:30;0.10;;;0.10;;
2464;SDS011;1244;54.326;10.074;2024-02-26T12:17:57;0.10;;;0.10;;
2464;SDS011;1244;54.326;10.074;2024-02-26T12:20:25;0.20;;;0.20;;
2464;SDS011;1244;54.326;10.074;2024-02-26T12:22:50;0.10;;;0.10;;
2464;SDS011;1244;54.326;10.074;2024-02-26T12:25:17;0.20;;;0.20;;
2464;SDS011;1244;54.326;10.074;2024-02-26T12:27:47;0.20;;;0.20;;
2464;SDS011;1244;54.326;10.074;2024-02-26T12:30:12;0.10;;;0.10;;
2464;SDS011;1244;54.326;10.074;2024-02-26T12:32:38;0.20;;;0.20;;
2464;SDS011;1244;54.326;10.074;2024-02-26T12:35:05;0.20;;;0.20;;
2464;SDS011;1244;54.326;10.074;2024-02-26T12:37:31;0.10;;;0.10;;
2464;SDS011;1244;54.326;10.074;2024-02-26T12:39:57;0.17;;;0.17;;
2464;SDS011;1244;54.326;10.074;2024-02-26T12:42:22;0.20;;;0.20;;
2464;SDS011;1244;54.326;10.074;2024-02-26T12:44:49;0.20;;;0.20;;
2464;SDS011;1244;54.326;10.074;2024-02-26T12:47:15;0.20;;;0.20;;
2464;SDS011;1244;54.326;10.074;2024-02-26T12:49:42;0.20;;;0.20;;
2464;SDS011;1244;54.326;10.074;2024-02-26T12:52:09;0.20;;;0.20;;
2464;SDS011;1244;54.326;10.074;2024-02-26T12:54:35;0.20;;;0.20;;
2464;SDS011;1244;54.326;10.074;2024-02-26T12:57:04;0.30;;;0.30;;
2464;SDS011;1244;54.326;10.074;2024-02-26T12:59:31;0.20;;;0.20;;
2464;SDS011;1244;54.326;10.074;2024-02-26T13:01:58;0.20;;;0.20;;
2464;SDS011;1244;54.326;10.074;2024-02-26T13:04:23;0.20;;;0.20;;
2464;SDS011;1244;54.326;10.074;2024-02-26T13:06:50;0.20;;;0.20;;
2464;SDS011;1244;54.326;10.074;2024-02-26T13:09:16;0.20;;;0.20;;
2464;SDS011;1244;54.326;10.074;2024-02-26T13:11:43;0.20;;;0.20;;
2464;SDS011;1244;54.326;10.074;2024-02-26T13:14:18;0.20;;;0.20;;
2464;SDS011;1244;54.326;10.074;2024-02-26T13:16:45;0.30;;;0.30;;
2464;SDS011;1244;54.326;10.074;2024-02-26T13:19:19;0.30;;;0.30;;
2464;SDS011;1244;54.326;10.074;2024-02-26T13:21:44;0.20;;;0.20;;
2464;SDS011;1244;54.326;10.074;2024-02-26T13:24:12;0.20;;;0.20;;
2464;SDS011;1244;54.326;10.074;2024-02-26T13:26:38;0.20;;;0.20;;
2464;SDS011;1244;54.326;10.074;2024-02-26T13:29:04;0.20;;;0.20;;
2464;SDS011;1244;54.326;10.074;2024-02-26T13:31:30;0.20;;;0.20;;
2464;SDS011;1244;54.326;10.074;2024-02-26T13:33:55;0.20;;;0.20;;
2464;SDS011;1244;54.326;10.074;2024-02-26T13:36:24;0.20;;;0.20;;
2464;SDS011;1244;54.326;10.074;2024-02-26T13:38:53;0.20;;;0.20;;
2464;SDS011;1244;54.326;10.074;2024-02-26T13:41:20;0.20;;;0.20;;
2464;SDS011;1244;54.326;10.074;2024-02-26T13:43:46;0.20;;;0.20;;
2464;SDS011;1244;54.326;10.074;2024-02-26T13:46:13;0.20;;;0.20;;
2464;SDS011;1244;54.326;10.074;2024-02-26T13:48:40;0.20;;;0.20;;
2464;SDS011;1244;54.326;10.074;2024-02-26T13:51:06;0.20;;;0.20;;
2464;SDS011;1244;54.326;10.074;2024-02-26T13:53:32;0.20;;;0.20;;
2464;SDS011;1244;54.326;10.074;2024-02-26T13:55:57;0.20;;;0.20;;
2464;SDS011;1244;54.326;10.074;2024-02-26T13:58:25;0.30;;;0.30;;
2464;SDS011;1244;54.326;10.074;2024-02-26T14:00:52;0.20;;;0.20;;
2464;SDS011;1244;54.326;10.074;2024-02-26T14:03:18;0.20;;;0.20;;
2464;SDS011;1244;54.326;10.074;2024-02-26T14:05:44;0.20;;;0.20;;
2464;SDS011;1244;54.326;10.074;2024-02-26T14:08:10;0.30;;;0.30;;
2464;SDS011;1244;54.326;10.074;2024-02-26T14:10:35;0.20;;;0.20;;
2464;SDS011;1244;54.326;10.074;2024-02-26T14:13:02;0.20;;;0.20;;
2464;SDS011;1244;54.326;10.074;2024-02-26T14:15:28;0.20;;;0.20;;
2464;SDS011;1244;54.326;10.074;2024-02-26T14:17:54;0.20;;;0.20;;
2464;SDS011;1244;54.326;10.074;2024-02-26T14:20:21;0.20;;;0.20;;
2464;SDS011;1244;54.326;10.074;2024-02-26T14:22:49;0.20;;;0.20;;
2464;SDS011;1244;54.326;10.074;2024-02-26T14:25:18;0.20;;;0.20;;
2464;SDS011;1244;54.326;10.074;2024-02-26T14:27:45;0.20;;;0.20;;
2464;SDS011;1244;54.326;10.074;2024-02-26T14:30:12;0.20;;;0.20;;
2464;SDS011;1244;54.326;10.074;2024-02-26T14:32:38;0.20;;;0.20;;
2464;SDS011;1244;54.326;10.074;2024-02-26T14:35:07;0.20;;;0.20;;
2464;SDS011;1244;54.326;10.074;2024-02-26T14:37:34;0.20;;;0.20;;
2464;SDS011;1244;54.326;10.074;2024-02-26T14:40:00;0.20;;;0.20;;
2464;SDS011;1244;54.326;10.074;2024-02-26T14:42:27;0.20;;;0.20;;
2464;SDS011;1244;54.326;10.074;2024-02-26T14:44:53;0.20;;;0.20;;
2464;SDS011;1244;54.326;10.074;2024-02-26T14:47:18;0.20;;;0.20;;
2464;SDS011;1244;54.326;10.074;2024-02-26T14:49:44;0.20;;;0.20;;
2464;SDS011;1244;54.326;10.074;2024-02-26T14:52:12;0.20;;;0.20;;
2464;SDS011;1244;54.326;10.074;2024-02-26T14:54:38;0.20;;;0.20;;
2464;SDS011;1244;54.326;10.074;2024-02-26T14:57:04;0.20;;;0.20;;
2464;SDS011;1244;54.326;10.074;2024-02-26T14:59:31;0.20;;;0.20;;
2464;SDS011;1244;54.326;10.074;2024-02-26T15:01:57;0.20;;;0.20;;
2464;SDS011;1244;54.326;10.074;2024-02-26T15:04:25;0.20;;;0.20;;
2464;SDS011;1244;54.326;10.074;2024-02-26T15:06:51;0.20;;;0.20;;